createdAt,value
2023-02-11T00:00:47.331Z,61.95
2023-02-11T00:01:47.382Z,61.95
2023-02-11T00:02:56.153Z,61.85
2023-02-11T00:03:47.652Z,61.74
2023-02-11T00:04:47.652Z,61.64
2023-02-11T00:05:47.833Z,61.74
2023-02-11T00:06:47.818Z,61.74
2023-02-11T00:07:47.837Z,61.64
2023-02-11T00:08:47.915Z,61.51
2023-02-11T00:09:48.009Z,61.51
2023-02-11T00:10:48.447Z,61.40
2023-02-11T00:11:48.160Z,61.40
2023-02-11T00:12:48.219Z,61.30
2023-02-11T00:13:48.358Z,61.30
2023-02-11T00:14:48.674Z,61.30
2023-02-11T00:15:57.212Z,61.19
2023-02-11T00:16:48.694Z,61.08
2023-02-11T00:17:48.671Z,61.08
2023-02-11T00:18:48.767Z,60.98
2023-02-11T00:19:48.869Z,61.08
2023-02-11T00:20:49.007Z,61.08
2023-02-11T00:21:49.070Z,61.08
2023-02-11T00:22:49.108Z,61.22
2023-02-11T00:23:49.240Z,61.11
2023-02-11T00:24:49.305Z,61.01
2023-02-11T00:25:49.747Z,61.11
2023-02-11T00:26:49.449Z,61.11
2023-02-11T00:27:49.560Z,61.01
2023-02-11T00:28:49.602Z,61.01
2023-02-11T00:29:49.710Z,60.91
2023-02-11T00:30:49.856Z,60.91
2023-02-11T00:31:49.970Z,61.01
2023-02-11T00:32:49.944Z,61.01
2023-02-11T00:33:50.054Z,61.11
2023-02-11T00:34:50.137Z,61.11
2023-02-11T00:35:50.571Z,61.22
2023-02-11T00:36:50.297Z,61.22
2023-02-11T00:37:50.394Z,61.32
2023-02-11T00:38:50.454Z,61.43
2023-02-11T00:39:50.548Z,61.43
2023-02-11T00:40:50.715Z,61.54
2023-02-11T00:41:50.741Z,61.64
2023-02-11T00:42:50.794Z,61.64
2023-02-11T00:43:50.865Z,61.64
2023-02-11T00:44:50.913Z,61.64
2023-02-11T00:45:51.425Z,61.64
2023-02-11T00:46:51.098Z,61.64
2023-02-11T00:47:51.203Z,61.54
2023-02-11T00:48:51.285Z,61.54
2023-02-11T00:49:51.326Z,61.64
2023-02-11T00:50:51.394Z,61.64
2023-02-11T00:51:51.451Z,61.64
2023-02-11T00:52:51.553Z,61.74
2023-02-11T00:53:51.643Z,61.74
2023-02-11T00:54:51.748Z,61.74
2023-02-11T00:55:52.178Z,61.74
2023-02-11T00:56:51.945Z,61.74
2023-02-11T00:57:52.038Z,61.71
2023-02-11T00:58:52.130Z,61.61
2023-02-11T00:59:52.209Z,61.61
2023-02-11T01:00:52.331Z,61.51
2023-02-11T01:01:52.405Z,61.51
2023-02-11T01:02:52.460Z,61.40
2023-02-11T01:03:52.577Z,61.40
2023-02-11T01:04:52.679Z,61.30
2023-02-11T01:05:52.983Z,61.19
2023-02-11T01:06:52.806Z,61.08
2023-02-11T01:07:52.859Z,60.98
2023-02-11T01:08:52.949Z,60.98
2023-02-11T01:09:53.034Z,60.98
2023-02-11T01:10:53.148Z,60.98
2023-02-11T01:11:53.240Z,60.98
2023-02-11T01:12:53.297Z,60.98
2023-02-11T01:13:53.397Z,60.88
2023-02-11T01:14:53.494Z,60.88
2023-02-11T01:15:53.850Z,60.88
2023-02-11T01:16:53.631Z,60.88
2023-02-11T01:17:53.730Z,60.88
2023-02-11T01:18:53.794Z,60.98
2023-02-11T01:19:53.889Z,60.98
2023-02-11T01:20:53.959Z,60.98
2023-02-11T01:21:54.101Z,61.08
2023-02-11T01:22:54.112Z,61.08
2023-02-11T01:23:54.168Z,60.98
2023-02-11T01:24:54.256Z,60.98
2023-02-11T01:25:54.399Z,60.98
2023-02-11T01:26:54.394Z,60.98
2023-02-11T01:27:54.568Z,60.98
2023-02-11T01:28:54.589Z,60.98
2023-02-11T01:29:54.701Z,60.88
2023-02-11T01:30:54.890Z,60.77
2023-02-11T01:31:54.969Z,60.77
2023-02-11T01:32:54.949Z,60.77
2023-02-11T01:33:55.047Z,60.70
2023-02-11T01:34:55.197Z,60.59
2023-02-11T01:35:55.236Z,60.38
2023-02-11T01:36:55.284Z,60.38
2023-02-11T01:37:55.380Z,60.38
2023-02-11T01:38:55.429Z,60.38
2023-02-11T01:39:55.540Z,60.38
2023-02-11T01:40:55.614Z,60.28
2023-02-11T01:41:55.683Z,60.28
2023-02-11T01:42:55.722Z,60.07
2023-02-11T01:43:55.803Z,60.07
2023-02-11T01:44:55.857Z,60.07
2023-02-11T01:45:55.960Z,60.07
2023-02-11T01:46:56.037Z,60.07
2023-02-11T01:47:56.124Z,60.21
2023-02-11T01:48:56.236Z,60.21
2023-02-11T01:49:56.284Z,60.31
2023-02-11T01:50:56.376Z,60.31
2023-02-11T01:51:56.422Z,60.31
2023-02-11T01:52:56.516Z,60.31
2023-02-11T01:53:56.606Z,60.41
2023-02-11T01:54:56.715Z,60.41
2023-02-11T01:55:56.808Z,60.52
2023-02-11T01:56:56.839Z,60.41
2023-02-11T01:57:56.931Z,60.31
2023-02-11T01:58:57.046Z,60.21
2023-02-11T01:59:57.154Z,60.31
2023-02-11T02:00:57.237Z,60.41
2023-02-11T02:01:57.400Z,60.41
2023-02-11T02:02:57.368Z,60.52
2023-02-11T02:03:57.584Z,60.52
2023-02-11T02:04:57.563Z,60.62
2023-02-11T02:05:57.688Z,60.72
2023-02-11T02:06:57.732Z,60.72
2023-02-11T02:07:57.788Z,60.72
2023-02-11T02:08:57.899Z,60.83
2023-02-11T02:09:57.977Z,60.83
2023-02-11T02:10:58.086Z,60.72
2023-02-11T02:11:58.125Z,60.72
2023-02-11T02:12:58.220Z,60.72
2023-02-11T02:13:58.327Z,60.72
2023-02-11T02:14:58.419Z,60.72
2023-02-11T02:15:58.547Z,60.72
2023-02-11T02:16:58.607Z,60.72
2023-02-11T02:17:58.710Z,60.72
2023-02-11T02:18:58.777Z,60.72
2023-02-11T02:19:58.865Z,60.83
2023-02-11T02:20:58.936Z,60.72
2023-02-11T02:21:59.002Z,60.62
2023-02-11T02:22:59.045Z,60.62
2023-02-11T02:23:59.165Z,60.52
2023-02-11T02:24:59.206Z,60.52
2023-02-11T02:25:59.322Z,60.52
2023-02-11T02:26:59.373Z,60.41
2023-02-11T02:27:59.524Z,60.31
2023-02-11T02:28:59.566Z,60.10
2023-02-11T02:29:59.659Z,59.89
2023-02-11T02:30:59.857Z,59.78
2023-02-11T02:31:59.799Z,59.89
2023-02-11T02:33:02.202Z,60.10
2023-02-11T02:34:00.021Z,60.21
2023-02-11T02:35:00.104Z,60.31
2023-02-11T02:36:00.199Z,60.41
2023-02-11T02:37:00.252Z,60.52
2023-02-11T02:38:00.349Z,60.52
2023-02-11T02:39:00.440Z,60.62
2023-02-11T02:40:00.540Z,60.62
2023-02-11T02:41:00.681Z,60.62
2023-02-11T02:42:00.718Z,60.62
2023-02-11T02:43:00.764Z,60.72
2023-02-11T02:44:00.869Z,60.72
2023-02-11T02:45:00.944Z,60.72
2023-02-11T02:46:01.082Z,60.72
2023-02-11T02:47:01.212Z,60.72
2023-02-11T02:48:01.253Z,60.72
2023-02-11T02:49:01.368Z,60.72
2023-02-11T02:50:01.427Z,60.62
2023-02-11T02:51:01.640Z,60.62
2023-02-11T02:52:01.600Z,60.62
2023-02-11T02:53:01.690Z,60.62
2023-02-11T02:54:01.793Z,60.72
2023-02-11T02:55:01.834Z,60.72
2023-02-11T02:56:01.950Z,60.72
2023-02-11T02:57:02.000Z,60.62
2023-02-11T02:58:02.099Z,60.62
2023-02-11T02:59:02.153Z,60.62
2023-02-11T03:00:02.277Z,60.62
2023-02-11T03:01:02.379Z,60.52
2023-02-11T03:02:02.402Z,60.41
2023-02-11T03:03:02.498Z,60.41
2023-02-11T03:04:02.621Z,60.31
2023-02-11T03:05:02.720Z,60.31
2023-02-11T03:06:02.777Z,60.31
2023-02-11T03:07:02.855Z,60.21
2023-02-11T03:08:02.944Z,60.31
2023-02-11T03:09:03.031Z,60.41
2023-02-11T03:10:03.109Z,60.41
2023-02-11T03:11:03.167Z,60.31
2023-02-11T03:12:03.249Z,60.21
2023-02-11T03:13:03.343Z,60.10
2023-02-11T03:14:03.458Z,59.99
2023-02-11T03:15:03.537Z,59.78
2023-02-11T03:16:03.753Z,59.68
2023-02-11T03:17:03.713Z,59.70
2023-02-11T03:18:03.807Z,59.60
2023-02-11T03:19:03.922Z,59.70
2023-02-11T03:20:04.002Z,59.81
2023-02-11T03:21:04.073Z,59.92
2023-02-11T03:22:04.122Z,60.13
2023-02-11T03:23:04.213Z,60.23
2023-02-11T03:24:04.290Z,60.33
2023-02-11T03:25:04.356Z,60.33
2023-02-11T03:26:04.462Z,60.44
2023-02-11T03:27:04.544Z,60.44
2023-02-11T03:28:04.607Z,60.54
2023-02-11T03:29:04.662Z,60.54
2023-02-11T03:30:04.773Z,60.54
2023-02-11T03:31:04.956Z,60.44
2023-02-11T03:32:05.025Z,60.44
2023-02-11T03:33:05.005Z,60.44
2023-02-11T03:34:05.088Z,60.44
2023-02-11T03:35:05.134Z,60.33
2023-02-11T03:36:05.250Z,60.33
2023-02-11T03:37:05.304Z,60.23
2023-02-11T03:38:05.411Z,60.23
2023-02-11T03:39:05.515Z,60.23
2023-02-11T03:40:05.603Z,60.23
2023-02-11T03:41:05.753Z,60.33
2023-02-11T03:42:05.769Z,60.33
2023-02-11T03:43:05.864Z,60.44
2023-02-11T03:44:05.940Z,60.44
2023-02-11T03:45:06.001Z,60.33
2023-02-11T03:46:06.201Z,60.33
2023-02-11T03:47:06.154Z,60.33
2023-02-11T03:48:06.263Z,60.33
2023-02-11T03:49:06.325Z,60.44
2023-02-11T03:50:06.371Z,60.44
2023-02-11T03:51:06.508Z,60.54
2023-02-11T03:52:06.552Z,60.54
2023-02-11T03:53:06.658Z,60.54
2023-02-11T03:54:06.706Z,60.65
2023-02-11T03:55:06.810Z,60.75
2023-02-11T03:56:06.919Z,60.75
2023-02-11T03:57:06.966Z,60.75
2023-02-11T03:58:07.056Z,60.86
2023-02-11T03:59:07.163Z,60.86
2023-02-11T04:00:07.261Z,60.83
2023-02-11T04:01:07.437Z,60.83
2023-02-11T04:02:07.442Z,60.83
2023-02-11T04:03:07.613Z,60.83
2023-02-11T04:04:07.642Z,60.83
2023-02-11T04:05:07.743Z,60.83
2023-02-11T04:06:07.805Z,60.72
2023-02-11T04:07:07.926Z,60.72
2023-02-11T04:08:07.976Z,60.72
2023-02-11T04:09:08.099Z,60.72
2023-02-11T04:10:08.139Z,60.72
2023-02-11T04:11:08.272Z,60.72
2023-02-11T04:12:08.322Z,60.72
2023-02-11T04:13:08.427Z,60.72
2023-02-11T04:14:08.481Z,60.72
2023-02-11T04:15:08.611Z,60.72
2023-02-11T04:16:08.730Z,60.72
2023-02-11T04:17:08.763Z,60.62
2023-02-11T04:18:08.865Z,60.62
2023-02-11T04:19:08.965Z,60.62
2023-02-11T04:20:09.077Z,60.52
2023-02-11T04:21:09.158Z,60.52
2023-02-11T04:22:09.206Z,60.52
2023-02-11T04:23:09.304Z,60.52
2023-02-11T04:24:09.352Z,60.52
2023-02-11T04:25:09.467Z,60.52
2023-02-11T04:26:09.532Z,60.41
2023-02-11T04:27:09.598Z,60.41
2023-02-11T04:28:09.665Z,60.31
2023-02-11T04:29:09.764Z,60.31
2023-02-11T04:30:09.899Z,60.21
2023-02-11T04:31:09.948Z,60.10
2023-02-11T04:32:10.069Z,60.10
2023-02-11T04:33:10.062Z,60.10
2023-02-11T04:34:10.183Z,60.21
2023-02-11T04:35:10.262Z,60.21
2023-02-11T04:36:10.334Z,60.21
2023-02-11T04:37:10.380Z,60.31
2023-02-11T04:38:10.468Z,60.10
2023-02-11T04:39:10.562Z,59.99
2023-02-11T04:40:10.712Z,60.02
2023-02-11T04:41:10.831Z,60.02
2023-02-11T04:42:10.844Z,60.02
2023-02-11T04:43:10.944Z,59.92
2023-02-11T04:44:11.067Z,59.70
2023-02-11T04:45:11.121Z,59.70
2023-02-11T04:46:11.271Z,59.60
2023-02-11T04:47:11.297Z,59.50
2023-02-11T04:48:11.389Z,59.39
2023-02-11T04:49:11.482Z,59.63
2023-02-11T04:50:11.580Z,59.74
2023-02-11T04:51:11.713Z,59.74
2023-02-11T04:52:11.759Z,59.84
2023-02-11T04:53:11.870Z,59.84
2023-02-11T04:54:11.923Z,59.84
2023-02-11T04:55:12.024Z,59.86
2023-02-11T04:56:12.112Z,59.97
2023-02-11T04:57:12.176Z,60.08
2023-02-11T04:58:12.239Z,60.08
2023-02-11T04:59:12.297Z,60.18
2023-02-11T05:00:12.360Z,60.18
2023-02-11T05:01:12.515Z,60.28
2023-02-11T05:02:12.517Z,60.39
2023-02-11T05:03:12.648Z,60.39
2023-02-11T05:04:12.807Z,60.49
2023-02-11T05:05:12.787Z,60.60
2023-02-11T05:06:12.877Z,60.63
2023-02-11T05:07:12.946Z,60.83
2023-02-11T05:08:13.024Z,60.91
2023-02-11T05:09:13.101Z,61.02
2023-02-11T05:10:13.167Z,61.02
2023-02-11T05:11:13.287Z,61.12
2023-02-11T05:12:13.357Z,61.12
2023-02-11T05:13:13.468Z,61.12
2023-02-11T05:14:13.520Z,61.12
2023-02-11T05:15:13.617Z,61.12
2023-02-11T05:16:13.775Z,61.22
2023-02-11T05:17:13.769Z,61.22
2023-02-11T05:18:13.834Z,61.33
2023-02-11T05:19:13.941Z,61.33
2023-02-11T05:20:13.993Z,61.44
2023-02-11T05:21:14.126Z,61.44
2023-02-11T05:22:14.146Z,61.54
2023-02-11T05:23:14.246Z,61.54
2023-02-11T05:24:14.331Z,61.65
2023-02-11T05:25:14.438Z,61.75
2023-02-11T05:26:14.555Z,61.72
2023-02-11T05:27:14.597Z,61.72
2023-02-11T05:28:14.689Z,61.72
2023-02-11T05:29:14.768Z,61.72
2023-02-11T05:30:14.804Z,61.72
2023-02-11T05:31:15.122Z,61.72
2023-02-11T05:32:14.977Z,61.72
2023-02-11T05:33:15.080Z,61.72
2023-02-11T05:34:15.165Z,61.72
2023-02-11T05:35:15.262Z,61.72
2023-02-11T05:36:15.386Z,61.72
2023-02-11T05:37:15.480Z,61.72
2023-02-11T05:38:15.523Z,61.61
2023-02-11T05:39:15.609Z,61.61
2023-02-11T05:40:15.697Z,61.61
2023-02-11T05:41:15.849Z,61.61
2023-02-11T05:42:15.850Z,61.51
2023-02-11T05:43:15.958Z,61.30
2023-02-11T05:44:16.025Z,60.99
2023-02-11T05:45:16.148Z,60.88
2023-02-11T05:46:16.231Z,60.88
2023-02-11T05:47:16.310Z,60.78
2023-02-11T05:48:16.387Z,60.68
2023-02-11T05:49:16.477Z,60.68
2023-02-11T05:50:16.538Z,60.68
2023-02-11T05:51:16.680Z,60.78
2023-02-11T05:52:16.738Z,60.81
2023-02-11T05:53:16.824Z,60.91
2023-02-11T05:54:16.920Z,60.81
2023-02-11T05:55:17.016Z,60.71
2023-02-11T05:56:17.136Z,60.60
2023-02-11T05:57:17.215Z,60.71
2023-02-11T05:58:17.279Z,60.71
2023-02-11T05:59:17.403Z,60.60
2023-02-11T06:00:17.453Z,60.60
2023-02-11T06:01:17.582Z,60.73
2023-02-11T06:02:17.681Z,60.73
2023-02-11T06:03:17.746Z,60.83
2023-02-11T06:04:17.842Z,60.83
2023-02-11T06:05:17.904Z,60.83
2023-02-11T06:06:17.993Z,60.94
2023-02-11T06:07:18.064Z,60.83
2023-02-11T06:08:18.152Z,60.94
2023-02-11T06:09:18.213Z,60.94
2023-02-11T06:10:18.312Z,61.05
2023-02-11T06:11:18.459Z,61.15
2023-02-11T06:12:18.489Z,61.25
2023-02-11T06:13:18.563Z,61.36
2023-02-11T06:14:18.627Z,61.36
2023-02-11T06:15:18.697Z,61.46
2023-02-11T06:16:18.802Z,61.46
2023-02-11T06:17:18.858Z,61.46
2023-02-11T06:18:18.920Z,61.57
2023-02-11T06:19:18.998Z,61.57
2023-02-11T06:20:19.065Z,61.57
2023-02-11T06:21:19.155Z,61.57
2023-02-11T06:22:19.206Z,61.68
2023-02-11T06:23:19.296Z,61.68
2023-02-11T06:24:33.081Z,61.78
2023-02-11T06:25:19.468Z,61.75
2023-02-11T06:26:19.570Z,61.85
2023-02-11T06:27:19.635Z,61.96
2023-02-11T06:28:19.797Z,61.96
2023-02-11T06:29:19.821Z,61.96
2023-02-11T06:30:19.881Z,61.96
2023-02-11T06:31:20.132Z,61.85
2023-02-11T06:32:39.290Z,61.75
2023-02-11T06:33:20.187Z,61.75
2023-02-11T06:34:20.250Z,61.75
2023-02-11T06:35:20.354Z,61.75
2023-02-11T06:36:20.434Z,61.85
2023-02-11T06:37:20.492Z,61.85
2023-02-11T06:38:20.593Z,61.96
2023-02-11T06:39:20.660Z,62.07
2023-02-11T06:40:20.725Z,62.17
2023-02-11T06:41:20.883Z,62.17
2023-02-11T06:42:20.919Z,62.27
2023-02-11T06:43:20.999Z,62.27
2023-02-11T06:44:21.128Z,62.27
2023-02-11T06:45:21.149Z,62.27
2023-02-11T06:46:21.270Z,62.17
2023-02-11T06:47:21.306Z,62.07
2023-02-11T06:48:21.425Z,62.07
2023-02-11T06:49:21.513Z,61.96
2023-02-11T06:50:21.597Z,61.96
2023-02-11T06:51:21.680Z,61.96
2023-02-11T06:52:21.917Z,61.96
2023-02-11T06:53:21.816Z,61.96
2023-02-11T06:54:21.907Z,62.07
2023-02-11T06:55:22.013Z,62.07
2023-02-11T06:56:22.144Z,62.07
2023-02-11T06:57:22.179Z,62.17
2023-02-11T06:58:22.275Z,62.14
2023-02-11T06:59:22.379Z,62.14
2023-02-11T07:00:22.471Z,62.24
2023-02-11T07:01:22.626Z,62.24
2023-02-11T07:02:22.639Z,62.35
2023-02-11T07:03:22.733Z,62.45
2023-02-11T07:04:22.832Z,62.45
2023-02-11T07:05:22.875Z,62.45
2023-02-11T07:06:22.965Z,62.45
2023-02-11T07:07:23.018Z,62.35
2023-02-11T07:08:23.104Z,62.35
2023-02-11T07:09:23.228Z,62.35
2023-02-11T07:10:23.272Z,62.24
2023-02-11T07:11:23.407Z,62.35
2023-02-11T07:12:23.460Z,62.45
2023-02-11T07:13:23.557Z,62.56
2023-02-11T07:14:23.648Z,62.56
2023-02-11T07:15:23.745Z,62.56
2023-02-11T07:16:23.968Z,62.45
2023-02-11T07:17:23.948Z,62.45
2023-02-11T07:18:24.010Z,62.56
2023-02-11T07:19:24.102Z,62.56
2023-02-11T07:20:24.155Z,62.56
2023-02-11T07:21:24.323Z,62.66
2023-02-11T07:22:24.336Z,62.56
2023-02-11T07:23:24.468Z,62.56
2023-02-11T07:24:24.508Z,62.56
2023-02-11T07:25:24.626Z,62.66
2023-02-11T07:26:24.716Z,62.66
2023-02-11T07:27:24.814Z,62.77
2023-02-11T07:28:24.938Z,62.77
2023-02-11T07:29:24.935Z,62.87
2023-02-11T07:30:25.039Z,62.87
2023-02-11T07:31:25.379Z,63.08
2023-02-11T07:32:25.206Z,63.18
2023-02-11T07:33:25.318Z,63.29
2023-02-11T07:34:25.431Z,63.50
2023-02-11T07:35:25.460Z,63.40
2023-02-11T07:36:25.574Z,63.40
2023-02-11T07:37:25.633Z,63.47
2023-02-11T07:38:25.700Z,63.57
2023-02-11T07:39:25.811Z,63.68
2023-02-11T07:40:25.860Z,63.79
2023-02-11T07:41:26.021Z,64.00
2023-02-11T07:42:26.038Z,64.10
2023-02-11T07:43:26.141Z,64.10
2023-02-11T07:44:26.208Z,64.10
2023-02-11T07:45:26.319Z,64.10
2023-02-11T07:46:26.465Z,64.20
2023-02-11T07:47:26.459Z,64.20
2023-02-11T07:48:26.514Z,64.31
2023-02-11T07:49:26.628Z,64.20
2023-02-11T07:50:26.694Z,64.10
2023-02-11T07:51:26.782Z,64.00
2023-02-11T07:52:26.797Z,63.89
2023-02-11T07:53:26.894Z,64.00
2023-02-11T07:54:26.984Z,63.89
2023-02-11T07:55:27.097Z,63.89
2023-02-11T07:56:27.175Z,63.89
2023-02-11T07:57:27.226Z,64.00
2023-02-11T07:58:27.326Z,63.89
2023-02-11T07:59:27.395Z,63.89
2023-02-11T08:00:27.497Z,63.89
2023-02-11T08:01:27.611Z,63.79
2023-02-11T08:02:27.720Z,63.57
2023-02-11T08:03:27.726Z,63.55
2023-02-11T08:04:27.815Z,63.55
2023-02-11T08:05:27.893Z,63.55
2023-02-11T08:06:28.100Z,63.55
2023-02-11T08:07:28.046Z,63.55
2023-02-11T08:08:28.114Z,63.55
2023-02-11T08:09:28.155Z,63.55
2023-02-11T08:10:28.253Z,63.55
2023-02-11T08:11:28.353Z,63.55
2023-02-11T08:12:28.438Z,63.55
2023-02-11T08:13:28.488Z,63.55
2023-02-11T08:14:28.609Z,63.55
2023-02-11T08:15:28.646Z,63.55
2023-02-11T08:16:28.927Z,63.55
2023-02-11T08:17:28.831Z,63.55
2023-02-11T08:18:28.977Z,63.55
2023-02-11T08:19:29.001Z,63.65
2023-02-11T08:20:29.121Z,63.65
2023-02-11T08:21:29.254Z,63.62
2023-02-11T08:22:29.280Z,63.62
2023-02-11T08:23:29.380Z,63.62
2023-02-11T08:24:29.621Z,63.62
2023-02-11T08:25:29.571Z,63.62
2023-02-11T08:26:29.784Z,63.62
2023-02-11T08:29:46.237Z,63.52
2023-02-11T08:30:47.337Z,63.65
2023-02-11T08:31:47.485Z,63.86
2023-02-11T08:32:47.471Z,63.96
2023-02-11T08:33:47.554Z,63.96
2023-02-11T08:34:47.648Z,63.83
2023-02-11T08:35:47.739Z,63.83
2023-02-11T08:36:47.863Z,64.04
2023-02-11T08:37:47.910Z,64.14
2023-02-11T08:38:48.015Z,64.25
2023-02-11T08:39:48.067Z,64.36
2023-02-11T08:40:48.252Z,64.46
2023-02-11T08:41:48.294Z,64.46
2023-02-11T08:42:48.338Z,64.56
2023-02-11T08:43:48.434Z,64.53
2023-02-11T08:44:48.524Z,64.43
2023-02-11T08:45:48.834Z,64.43
2023-02-11T08:46:48.685Z,64.32
2023-02-11T08:47:48.750Z,64.32
2023-02-11T08:48:48.841Z,64.22
2023-02-11T08:49:48.948Z,64.22
2023-02-11T08:50:49.066Z,64.22
2023-02-11T08:51:49.146Z,64.12
2023-02-11T08:52:49.227Z,64.01
2023-02-11T08:53:49.347Z,63.90
2023-02-11T08:54:49.386Z,63.90
2023-02-11T08:57:15.311Z,63.90
2023-02-11T08:58:19.009Z,64.01
2023-02-11T08:59:16.419Z,64.25
2023-02-11T09:00:16.459Z,64.32
2023-02-11T09:01:16.620Z,64.43
2023-02-11T09:02:16.698Z,64.43
2023-02-11T09:03:16.732Z,64.32
2023-02-11T09:04:16.825Z,64.43
2023-02-11T09:05:16.938Z,64.43
2023-02-11T09:06:16.996Z,64.29
2023-02-11T09:07:17.113Z,64.29
2023-02-11T09:08:17.171Z,64.29
2023-02-11T09:09:17.265Z,64.29
2023-02-11T09:10:17.375Z,64.19
2023-02-11T09:11:17.446Z,64.19
2023-02-11T09:12:17.525Z,64.19
2023-02-11T09:13:17.602Z,64.19
2023-02-11T09:14:17.687Z,64.19
2023-02-11T09:16:45.270Z,64.19
2023-02-11T09:17:46.441Z,64.19
2023-02-11T09:18:46.351Z,64.19
2023-02-11T09:19:46.416Z,64.29
2023-02-11T09:20:46.471Z,64.29
2023-02-11T09:21:46.542Z,64.50
2023-02-11T09:22:46.703Z,64.61
2023-02-11T09:23:46.762Z,64.71
2023-02-11T09:24:46.815Z,64.71
2023-02-11T09:25:47.010Z,64.58
2023-02-11T09:26:47.055Z,64.47
2023-02-11T09:27:47.141Z,64.47
2023-02-11T09:28:47.212Z,64.47
2023-02-11T09:29:47.224Z,64.47
2023-02-11T09:30:47.457Z,64.47
2023-02-11T09:31:47.635Z,64.47
2023-02-11T09:32:47.650Z,64.47
2023-02-11T09:33:47.645Z,64.45
2023-02-11T09:34:47.669Z,64.34
2023-02-11T09:35:47.754Z,64.34
2023-02-11T09:36:47.841Z,64.23
2023-02-11T09:37:47.937Z,64.13
2023-02-11T09:38:48.153Z,64.13
2023-02-11T09:39:48.169Z,64.03
2023-02-11T09:40:48.383Z,63.92
2023-02-11T09:41:48.286Z,63.82
2023-02-11T09:42:48.220Z,63.71
2023-02-11T09:43:48.294Z,63.82
2023-02-11T09:44:48.446Z,63.82
2023-02-11T09:45:48.534Z,63.92
2023-02-11T09:46:48.630Z,63.92
2023-02-11T09:47:48.720Z,63.82
2023-02-11T09:48:48.773Z,63.71
2023-02-11T09:49:48.774Z,63.71
2023-02-11T09:50:49.185Z,63.48
2023-02-11T09:51:48.931Z,63.27
2023-02-11T09:55:24.325Z,63.37
2023-02-11T09:56:25.642Z,63.68
2023-02-11T09:57:29.060Z,63.68
2023-02-11T09:58:25.474Z,64.00
2023-02-11T09:59:25.494Z,63.89
2023-02-11T10:00:25.677Z,63.79
2023-02-11T10:01:34.887Z,63.89
2023-02-11T10:02:25.843Z,63.58
2023-02-11T10:03:25.798Z,63.48
2023-02-11T10:04:25.972Z,63.68
2023-02-11T10:05:26.069Z,63.45
2023-02-11T10:06:26.102Z,62.62
2023-02-11T10:07:26.169Z,62.41
2023-02-11T10:09:56.366Z,62.51
2023-02-11T10:10:57.416Z,62.51
2023-02-11T10:11:57.468Z,62.62
2023-02-11T10:12:57.487Z,62.72
2023-02-11T10:13:57.639Z,62.62
2023-02-11T10:14:57.756Z,62.51
2023-02-11T10:15:57.774Z,62.41
2023-02-11T10:16:57.881Z,62.48
2023-02-11T10:17:57.906Z,62.69
2023-02-11T10:20:45.459Z,62.90
2023-02-11T10:21:46.684Z,62.90
2023-02-11T10:22:46.591Z,63.00
2023-02-11T10:23:46.637Z,63.00
2023-02-11T10:24:46.743Z,62.69
2023-02-11T10:25:46.858Z,62.66
2023-02-11T10:26:46.928Z,62.87
2023-02-11T10:29:29.666Z,63.29
2023-02-11T10:37:27.328Z,63.39
2023-02-11T10:38:28.127Z,63.60
2023-02-11T10:39:28.208Z,63.78
2023-02-11T10:40:28.826Z,63.67
2023-02-11T10:41:28.422Z,63.57
2023-02-11T10:42:28.605Z,63.43
2023-02-11T10:43:28.540Z,63.43
2023-02-11T10:44:28.641Z,63.23
2023-02-11T10:45:28.753Z,62.88
2023-02-11T10:46:28.834Z,62.47
2023-02-11T10:48:50.872Z,61.43
2023-02-11T10:50:00.500Z,61.43
2023-02-11T10:50:52.452Z,61.43
2023-02-11T10:51:52.344Z,61.64
2023-02-11T10:52:52.258Z,61.64
2023-02-11T10:53:52.296Z,61.33
2023-02-11T10:54:52.383Z,60.57
2023-02-11T10:55:52.474Z,60.26
2023-02-11T10:56:52.605Z,60.05
2023-02-11T10:57:52.721Z,59.92
2023-02-11T10:58:52.748Z,59.82
2023-02-11T10:59:52.761Z,59.61
2023-02-11T11:00:53.313Z,59.58
2023-02-11T11:01:52.989Z,59.27
2023-02-11T11:02:53.041Z,59.17
2023-02-11T11:13:01.672Z,58.50
2023-02-11T11:14:02.616Z,58.60
2023-02-11T11:15:02.747Z,58.70
2023-02-11T11:16:02.867Z,58.88
2023-02-11T11:17:02.907Z,58.98
2023-02-11T11:18:20.258Z,58.98
2023-02-11T11:19:03.036Z,58.96
2023-02-11T11:32:07.551Z,58.52
2023-02-11T11:35:17.212Z,58.62
2023-02-11T11:36:18.326Z,57.90
2023-02-11T11:37:18.344Z,58.21
2023-02-11T11:38:18.399Z,58.28
2023-02-11T11:39:18.463Z,57.76
2023-02-11T11:41:44.441Z,57.24
2023-02-11T11:42:45.556Z,57.24
2023-02-11T11:43:45.578Z,57.35
2023-02-11T11:44:45.800Z,56.10
2023-02-11T11:47:33.099Z,56.52
2023-02-11T11:48:34.118Z,56.41
2023-02-11T11:49:34.202Z,56.21
2023-02-11T11:50:34.233Z,55.79
2023-02-11T11:51:34.335Z,55.66
2023-02-11T11:52:46.543Z,55.04
2023-02-11T11:53:34.513Z,54.83
2023-02-11T12:01:59.861Z,56.31
2023-02-11T12:02:59.712Z,56.41
2023-02-11T12:04:00.923Z,56.60
2023-02-11T12:05:01.487Z,56.49
2023-02-11T12:06:00.958Z,56.29
2023-02-11T12:07:00.987Z,56.26
2023-02-11T12:08:01.029Z,56.47
2023-02-11T12:09:04.057Z,56.57
2023-02-11T12:10:01.223Z,56.68
2023-02-11T12:11:01.485Z,56.75
2023-02-11T12:12:01.792Z,56.54
2023-02-11T12:13:01.413Z,56.34
2023-02-11T12:14:01.567Z,56.13
2023-02-11T12:15:01.606Z,56.13
2023-02-11T12:16:01.754Z,56.21
2023-02-11T12:17:01.859Z,56.31
2023-02-11T12:18:01.915Z,56.41
2023-02-11T12:19:01.957Z,56.39
2023-02-11T12:20:02.155Z,56.08
2023-02-11T12:21:02.186Z,55.87
2023-02-11T12:22:02.303Z,55.77
2023-02-11T12:23:02.327Z,55.87
2023-02-11T12:24:03.008Z,55.85
2023-02-11T12:25:04.604Z,55.64
2023-02-11T12:26:02.678Z,55.43
2023-02-11T12:27:02.753Z,55.22
2023-02-11T12:28:02.851Z,55.22
2023-02-11T12:29:02.887Z,55.22
2023-02-11T12:30:02.906Z,54.82
2023-02-11T12:31:03.066Z,54.61
2023-02-11T12:32:03.143Z,54.79
2023-02-11T12:33:03.242Z,54.58
2023-02-11T12:34:03.181Z,54.58
2023-02-11T12:35:03.304Z,54.38
2023-02-11T12:36:03.302Z,54.38
2023-02-11T12:37:03.918Z,54.27
2023-02-11T12:38:03.646Z,54.27
2023-02-11T12:39:03.612Z,54.38
2023-02-11T12:40:03.665Z,54.04
2023-02-11T12:41:03.751Z,53.52
2023-02-11T12:42:03.836Z,53.21
2023-02-11T12:43:03.960Z,52.70
2023-02-11T12:44:04.032Z,52.98
2023-02-11T12:45:04.102Z,53.19
2023-02-11T12:46:25.253Z,52.67
2023-02-11T12:47:04.257Z,52.67
2023-02-11T12:48:04.472Z,52.67
2023-02-11T12:49:04.478Z,52.65
2023-02-11T12:50:04.533Z,52.75
2023-02-11T12:51:04.595Z,52.65
2023-02-11T12:52:04.696Z,51.82
2023-02-11T12:53:05.005Z,52.13
2023-02-11T12:54:06.857Z,52.34
2023-02-11T12:55:04.988Z,51.79
2023-02-11T12:56:04.982Z,52.00
2023-02-11T12:57:05.154Z,52.00
2023-02-11T12:58:05.209Z,51.49
2023-02-11T12:59:05.385Z,51.59
2023-02-11T13:00:05.291Z,51.79
2023-02-11T13:01:05.382Z,51.79
2023-02-11T13:02:05.527Z,51.59
2023-02-11T13:03:05.553Z,50.66
2023-02-11T13:04:05.645Z,49.94
2023-02-11T13:05:16.335Z,49.43
2023-02-11T13:06:05.838Z,49.91
2023-02-11T13:07:05.910Z,50.35
2023-02-11T13:08:06.012Z,50.76
2023-02-11T13:09:06.103Z,50.87
2023-02-11T13:10:06.225Z,50.76
2023-02-11T13:11:06.256Z,50.66
2023-02-11T13:12:06.325Z,50.87
2023-02-11T13:13:06.378Z,50.46
2023-02-11T13:14:06.488Z,50.56
2023-02-11T13:15:06.541Z,50.56
2023-02-11T13:16:06.691Z,50.66
2023-02-11T13:17:06.702Z,50.04
2023-02-11T13:18:06.814Z,49.81
2023-02-11T13:19:06.940Z,49.19
2023-02-11T13:20:06.965Z,49.61
2023-02-11T13:21:07.029Z,49.91
2023-02-11T13:22:07.164Z,50.12
2023-02-11T13:23:07.218Z,50.23
2023-02-11T13:24:07.299Z,50.35
2023-02-11T13:25:07.400Z,50.35
2023-02-11T13:26:07.485Z,50.46
2023-02-11T13:27:07.554Z,50.66
2023-02-11T13:28:07.789Z,50.76
2023-02-11T13:29:07.795Z,50.35
2023-02-11T13:30:07.802Z,50.25
2023-02-11T13:31:08.106Z,50.15
2023-02-11T13:32:08.013Z,50.25
2023-02-11T13:33:08.030Z,50.46
2023-02-11T13:34:08.173Z,50.35
2023-02-11T13:35:08.232Z,50.04
2023-02-11T13:36:08.276Z,49.63
2023-02-11T13:37:08.364Z,49.30
2023-02-11T13:38:08.523Z,49.30
2023-02-11T13:39:08.538Z,49.19
2023-02-11T13:40:08.621Z,49.30
2023-02-11T13:41:08.762Z,49.30
2023-02-11T13:42:08.895Z,49.40
2023-02-11T13:43:08.971Z,49.30
2023-02-11T13:44:09.032Z,49.30
2023-02-11T13:45:09.088Z,49.30
2023-02-11T13:46:09.387Z,49.40
2023-02-11T13:47:09.306Z,49.40
2023-02-11T13:48:09.326Z,49.19
2023-02-11T13:49:09.449Z,48.27